createdAt,value
2023-04-18T00:00:44.775Z,14.03
2023-04-18T00:01:46.622Z,14.01
2023-04-18T00:02:48.589Z,14.01
2023-04-18T00:03:50.740Z,13.98
2023-04-18T00:04:52.835Z,13.97
2023-04-18T00:05:54.696Z,13.96
2023-04-18T00:06:56.500Z,13.95
2023-04-18T00:07:58.285Z,13.96
2023-04-18T00:09:00.168Z,13.96
2023-04-18T00:10:01.945Z,13.94
2023-04-18T00:11:03.768Z,13.97
2023-04-18T00:12:05.477Z,13.96
2023-04-18T00:13:07.263Z,13.98
2023-04-18T00:14:09.054Z,13.98
2023-04-18T00:15:10.896Z,13.98
2023-04-18T00:16:13.831Z,14.00
2023-04-18T00:17:15.692Z,13.97
2023-04-18T00:18:17.484Z,13.96
2023-04-18T00:19:19.285Z,13.97
2023-04-18T00:20:21.160Z,13.96
2023-04-18T00:21:22.991Z,13.94
2023-04-18T00:22:43.089Z,13.93
2023-04-18T00:23:44.911Z,13.93
2023-04-18T00:24:46.711Z,13.90
2023-04-18T00:25:48.499Z,13.87
2023-04-18T00:26:50.307Z,13.86
2023-04-18T00:27:52.014Z,13.84
2023-04-18T00:28:53.812Z,13.79
2023-04-18T00:29:55.593Z,13.76
2023-04-18T00:30:57.539Z,13.75
2023-04-18T00:31:59.334Z,13.75
2023-04-18T00:33:01.171Z,13.76
2023-04-18T00:34:02.933Z,13.76
2023-04-18T00:35:04.716Z,13.75
2023-04-18T00:36:06.644Z,13.74
2023-04-18T00:37:08.467Z,13.76
2023-04-18T00:38:10.265Z,13.76
2023-04-18T00:39:12.057Z,13.74
2023-04-18T00:40:13.854Z,13.74
2023-04-18T00:41:15.662Z,13.71
2023-04-18T00:42:17.511Z,13.69
2023-04-18T00:43:19.298Z,13.69
2023-04-18T00:44:21.156Z,13.68
2023-04-18T00:45:22.945Z,13.68
2023-04-18T00:46:24.768Z,13.69
2023-04-18T00:47:26.788Z,13.68
2023-04-18T00:48:28.573Z,13.70
2023-04-18T00:49:30.369Z,13.68
2023-04-18T00:50:32.172Z,13.67
2023-04-18T00:51:33.994Z,13.67
2023-04-18T00:52:35.812Z,13.68
2023-04-18T00:53:37.609Z,13.69
2023-04-18T00:54:39.509Z,13.70
2023-04-18T00:55:41.310Z,13.67
2023-04-18T00:56:43.124Z,13.66
2023-04-18T00:57:44.948Z,13.66
2023-04-18T00:58:46.848Z,13.65
2023-04-18T00:59:48.655Z,13.63
2023-04-18T01:00:50.455Z,13.65
2023-04-18T01:01:52.366Z,13.68
2023-04-18T01:02:54.412Z,13.67
2023-04-18T01:03:56.482Z,13.65
2023-04-18T01:04:58.306Z,13.63
2023-04-18T01:06:00.126Z,13.62
2023-04-18T01:07:01.907Z,13.60
2023-04-18T01:08:03.757Z,13.59
2023-04-18T01:09:05.459Z,13.58
2023-04-18T01:10:07.755Z,13.58
2023-04-18T01:11:09.693Z,13.58
2023-04-18T01:12:11.490Z,13.58
2023-04-18T01:13:13.315Z,13.59
2023-04-18T01:14:15.302Z,13.58
2023-04-18T01:15:17.214Z,13.55
2023-04-18T01:16:19.234Z,13.54
2023-04-18T01:17:21.105Z,13.55
2023-04-18T01:18:22.926Z,13.56
2023-04-18T01:19:24.726Z,13.56
2023-04-18T01:20:26.510Z,13.55
2023-04-18T01:21:28.323Z,13.54
2023-04-18T01:22:30.152Z,13.53
2023-04-18T01:23:31.969Z,13.53
2023-04-18T01:24:33.770Z,13.48
2023-04-18T01:25:35.567Z,13.49
2023-04-18T01:26:37.359Z,13.50
2023-04-18T01:27:39.289Z,13.48
2023-04-18T01:28:41.120Z,13.49
2023-04-18T01:29:42.912Z,13.46
2023-04-18T01:30:44.712Z,13.44
2023-04-18T01:31:46.557Z,13.44
2023-04-18T01:32:48.363Z,13.43
2023-04-18T01:33:50.144Z,13.43
2023-04-18T01:34:51.963Z,13.42
2023-04-18T01:35:53.752Z,13.41
2023-04-18T01:36:55.551Z,13.39
2023-04-18T01:37:57.358Z,13.39
2023-04-18T01:38:59.186Z,13.36
2023-04-18T01:40:00.985Z,13.37
2023-04-18T01:41:02.785Z,13.35
2023-04-18T01:42:04.588Z,13.34
2023-04-18T01:43:06.517Z,13.32
2023-04-18T01:44:08.336Z,13.30
2023-04-18T01:45:10.121Z,13.29
2023-04-18T01:46:13.510Z,13.30
2023-04-18T01:47:15.336Z,13.30
2023-04-18T01:48:17.136Z,13.30
2023-04-18T01:49:18.984Z,13.29
2023-04-18T01:50:20.788Z,13.26
2023-04-18T01:51:22.468Z,13.26
2023-04-18T01:52:24.335Z,13.28
2023-04-18T01:53:26.059Z,13.26
2023-04-18T01:54:27.920Z,13.25
2023-04-18T01:55:29.737Z,13.25
2023-04-18T01:56:31.539Z,13.22
2023-04-18T01:57:33.328Z,13.24
2023-04-18T01:58:35.142Z,13.23
2023-04-18T01:59:36.977Z,13.18
2023-04-18T02:00:38.804Z,13.17
2023-04-18T02:01:40.587Z,13.16
2023-04-18T02:02:42.464Z,13.17
2023-04-18T02:03:44.651Z,13.19
2023-04-18T02:04:46.614Z,13.20
2023-04-18T02:05:48.419Z,13.18
2023-04-18T02:06:50.236Z,13.18
2023-04-18T02:07:52.045Z,13.17
2023-04-18T02:08:53.823Z,13.15
2023-04-18T02:09:55.667Z,13.17
2023-04-18T02:10:57.472Z,13.17
2023-04-18T02:11:59.280Z,13.15
2023-04-18T02:13:01.056Z,13.15
2023-04-18T02:14:02.874Z,13.14
2023-04-18T02:15:04.685Z,13.14
2023-04-18T02:16:06.618Z,13.12
2023-04-18T02:17:08.402Z,13.10
2023-04-18T02:18:10.188Z,13.09
2023-04-18T02:19:11.995Z,13.09
2023-04-18T02:20:13.910Z,13.09
2023-04-18T02:21:15.704Z,13.08
2023-04-18T02:22:17.506Z,13.08
2023-04-18T02:23:19.302Z,13.06
2023-04-18T02:24:21.115Z,13.02
2023-04-18T02:25:22.948Z,13.01
2023-04-18T02:26:24.755Z,13.01
2023-04-18T02:27:26.570Z,13.00
2023-04-18T02:28:28.344Z,13.00
2023-04-18T02:29:30.146Z,13.02
2023-04-18T02:30:31.993Z,13.02
2023-04-18T02:31:33.867Z,13.03
2023-04-18T02:32:35.752Z,13.04
2023-04-18T02:33:37.598Z,13.02
2023-04-18T02:34:39.323Z,13.02
2023-04-18T02:35:41.138Z,12.99
2023-04-18T02:36:42.939Z,12.99
2023-04-18T02:37:44.738Z,12.99
2023-04-18T02:38:46.526Z,12.98
2023-04-18T02:39:48.328Z,12.96
2023-04-18T02:40:50.282Z,12.94
2023-04-18T02:41:52.067Z,12.95
2023-04-18T02:42:53.884Z,12.92
2023-04-18T02:43:55.700Z,12.90
2023-04-18T02:44:57.500Z,12.90
2023-04-18T02:45:59.409Z,12.89
2023-04-18T02:47:01.297Z,12.88
2023-04-18T02:48:03.109Z,12.86
2023-04-18T02:49:04.914Z,12.84
2023-04-18T02:50:07.016Z,12.85
2023-04-18T02:51:08.847Z,12.83
2023-04-18T02:52:10.662Z,12.83
2023-04-18T02:53:12.480Z,12.83
2023-04-18T02:54:14.555Z,12.83
2023-04-18T02:55:16.580Z,12.83
2023-04-18T02:56:18.410Z,12.82
2023-04-18T02:57:20.201Z,12.82
2023-04-18T02:58:21.994Z,12.80
2023-04-18T02:59:23.805Z,12.80
2023-04-18T03:00:25.625Z,12.78
2023-04-18T03:01:27.508Z,12.77
2023-04-18T03:02:29.452Z,12.76
2023-04-18T03:03:31.382Z,12.75
2023-04-18T03:04:33.183Z,12.73
2023-04-18T03:05:34.930Z,12.75
2023-04-18T03:06:36.756Z,12.76
2023-04-18T03:07:38.561Z,12.75
2023-04-18T03:08:40.348Z,12.76
2023-04-18T03:09:42.160Z,12.74
2023-04-18T03:10:43.936Z,12.74
2023-04-18T03:11:45.778Z,12.74
2023-04-18T03:12:47.556Z,12.72
2023-04-18T03:13:49.375Z,12.71
2023-04-18T03:14:51.221Z,12.70
2023-04-18T03:15:53.100Z,12.71
2023-04-18T03:16:55.703Z,12.70
2023-04-18T03:17:57.583Z,12.69
2023-04-18T03:18:59.429Z,12.71
2023-04-18T03:20:01.218Z,12.68
2023-04-18T03:21:03.013Z,12.68
2023-04-18T03:22:04.949Z,12.67
2023-04-18T03:23:06.746Z,12.66
2023-04-18T03:24:09.688Z,12.67
2023-04-18T03:25:12.151Z,12.63
2023-04-18T03:26:13.994Z,12.63
2023-04-18T03:27:17.588Z,12.59
2023-04-18T03:28:19.376Z,12.57
2023-04-18T03:29:21.180Z,12.56
2023-04-18T03:30:22.982Z,12.55
2023-04-18T03:31:24.802Z,12.53
2023-04-18T03:32:26.729Z,12.51
2023-04-18T03:33:28.496Z,12.51
2023-04-18T03:34:30.317Z,12.52
2023-04-18T03:35:32.114Z,12.54
2023-04-18T03:36:33.902Z,12.57
2023-04-18T03:37:35.742Z,12.58
2023-04-18T03:38:37.528Z,12.58
2023-04-18T03:39:39.326Z,12.59
2023-04-18T03:40:41.120Z,12.58
2023-04-18T03:41:42.976Z,12.59
2023-04-18T03:42:44.800Z,12.58
2023-04-18T03:43:46.585Z,12.58
2023-04-18T03:44:48.383Z,12.55
2023-04-18T03:45:50.244Z,12.54
2023-04-18T03:46:52.040Z,12.52
2023-04-18T03:47:53.877Z,12.51
2023-04-18T03:48:55.656Z,12.52
2023-04-18T03:49:57.439Z,12.54
2023-04-18T03:50:59.246Z,12.53
2023-04-18T03:52:01.029Z,12.52
2023-04-18T03:53:02.854Z,12.53
2023-04-18T03:54:04.651Z,12.51
2023-04-18T03:55:06.453Z,12.50
2023-04-18T03:56:08.557Z,12.48
2023-04-18T03:57:10.350Z,12.49
2023-04-18T03:58:12.197Z,12.50
2023-04-18T03:59:16.662Z,12.49
2023-04-18T04:00:18.501Z,12.49
2023-04-18T04:01:20.910Z,12.49
2023-04-18T04:02:22.800Z,12.47
2023-04-18T04:03:24.884Z,12.47
2023-04-18T04:04:26.865Z,12.49
2023-04-18T04:05:28.754Z,12.51
2023-04-18T04:06:30.558Z,12.54
2023-04-18T04:07:32.332Z,12.58
2023-04-18T04:08:34.123Z,12.62
2023-04-18T04:09:36.059Z,12.65
2023-04-18T04:10:37.859Z,12.67
2023-04-18T04:11:39.662Z,12.70
2023-04-18T04:12:41.461Z,12.72
2023-04-18T04:13:43.292Z,12.74
2023-04-18T04:14:45.195Z,12.74
2023-04-18T04:15:46.998Z,12.76
2023-04-18T04:16:48.897Z,12.81
2023-04-18T04:17:50.724Z,12.82
2023-04-18T04:18:52.607Z,12.86
2023-04-18T04:19:54.400Z,12.90
2023-04-18T04:20:56.189Z,12.94
2023-04-18T04:21:57.987Z,12.93
2023-04-18T04:22:59.794Z,12.93
2023-04-18T04:24:01.561Z,12.93
2023-04-18T04:25:03.396Z,12.94
2023-04-18T04:26:05.305Z,12.98
2023-04-18T04:27:07.105Z,12.98
2023-04-18T04:28:08.896Z,12.99
2023-04-18T04:29:10.631Z,12.97
2023-04-18T04:30:13.478Z,12.97
2023-04-18T04:31:15.451Z,12.99
2023-04-18T04:32:17.257Z,12.99
2023-04-18T04:33:19.058Z,13.01
2023-04-18T04:34:20.874Z,13.03
2023-04-18T04:35:22.715Z,13.03
2023-04-18T04:36:24.561Z,13.02
2023-04-18T04:37:26.362Z,13.02
2023-04-18T04:38:28.165Z,13.04
2023-04-18T04:39:29.994Z,13.05
2023-04-18T04:40:31.815Z,13.03
2023-04-18T04:41:33.603Z,13.01
2023-04-18T04:42:35.397Z,13.03
2023-04-18T04:43:37.198Z,13.02
2023-04-18T04:44:39.049Z,13.02
2023-04-18T04:45:40.874Z,13.02
2023-04-18T04:46:42.654Z,13.00
2023-04-18T04:47:44.476Z,13.01
2023-04-18T04:48:46.253Z,13.02
2023-04-18T04:49:48.087Z,13.02
2023-04-18T04:50:49.905Z,13.00
2023-04-18T04:51:51.698Z,13.03
2023-04-18T04:52:53.494Z,13.05
2023-04-18T04:53:55.392Z,13.06
2023-04-18T04:54:57.233Z,13.04
2023-04-18T04:55:59.049Z,13.06
2023-04-18T04:57:00.847Z,13.07
2023-04-18T04:58:02.654Z,13.08
2023-04-18T04:59:04.445Z,13.06
2023-04-18T05:00:06.567Z,13.04
2023-04-18T05:01:08.396Z,13.02
2023-04-18T05:02:10.340Z,12.99
2023-04-18T05:03:12.269Z,13.02
2023-04-18T05:04:14.538Z,13.02
2023-04-18T05:05:16.723Z,13.03
2023-04-18T05:06:18.494Z,13.04
2023-04-18T05:07:20.285Z,13.03
2023-04-18T05:08:22.087Z,13.01
2023-04-18T05:09:23.893Z,12.97
2023-04-18T05:10:26.027Z,12.95
2023-04-18T05:11:27.916Z,12.93
2023-04-18T05:12:29.730Z,12.94
2023-04-18T05:13:31.513Z,12.98
2023-04-18T05:14:33.308Z,13.04
2023-04-18T05:15:35.148Z,13.08
2023-04-18T05:16:36.976Z,13.11
2023-04-18T05:17:38.943Z,13.14
2023-04-18T05:18:40.761Z,13.15
2023-04-18T05:19:42.545Z,13.16
2023-04-18T05:20:44.410Z,13.15
2023-04-18T05:21:46.209Z,13.15
2023-04-18T05:22:48.022Z,13.15
2023-04-18T05:23:49.807Z,13.15
2023-04-18T05:24:51.622Z,13.18
2023-04-18T05:25:53.457Z,13.16
2023-04-18T05:26:55.337Z,13.18
2023-04-18T05:27:57.125Z,13.20
2023-04-18T05:28:58.919Z,13.22
2023-04-18T05:30:00.724Z,13.27
2023-04-18T05:31:02.719Z,13.30
2023-04-18T05:32:04.578Z,13.34
2023-04-18T05:33:06.432Z,13.37
2023-04-18T05:34:08.183Z,13.38
2023-04-18T05:35:09.994Z,13.39
2023-04-18T05:36:12.113Z,13.42
2023-04-18T05:37:13.944Z,13.46
2023-04-18T05:38:15.731Z,13.49
2023-04-18T05:39:17.536Z,13.49
2023-04-18T05:40:19.355Z,13.48
2023-04-18T05:41:21.172Z,13.50
2023-04-18T05:42:22.978Z,13.53
2023-04-18T05:43:24.797Z,13.56
2023-04-18T05:44:26.596Z,13.55
2023-04-18T05:45:28.407Z,13.56
2023-04-18T05:46:30.290Z,13.57
2023-04-18T05:47:32.208Z,13.59
2023-04-18T05:48:33.965Z,13.62
2023-04-18T05:49:35.769Z,13.64
2023-04-18T05:50:37.565Z,13.69
2023-04-18T05:51:39.425Z,13.70
2023-04-18T05:52:41.255Z,13.70
2023-04-18T05:53:43.056Z,13.70
2023-04-18T05:54:44.856Z,13.71
2023-04-18T05:55:46.673Z,13.74
2023-04-18T05:56:48.560Z,13.75
2023-04-18T05:57:50.368Z,13.77
2023-04-18T05:58:52.160Z,13.76
2023-04-18T05:59:53.975Z,13.75
2023-04-18T06:00:55.774Z,13.76
2023-04-18T06:01:57.686Z,13.80
2023-04-18T06:02:59.731Z,13.84
2023-04-18T06:04:01.914Z,13.87
2023-04-18T06:05:03.973Z,13.87
2023-04-18T06:06:05.938Z,13.86
2023-04-18T06:07:07.777Z,13.88
2023-04-18T06:08:09.548Z,13.90
2023-04-18T06:09:11.374Z,13.94
2023-04-18T06:10:13.268Z,13.95
2023-04-18T06:11:15.103Z,13.99
2023-04-18T06:12:16.915Z,14.01
2023-04-18T06:13:18.922Z,14.05
2023-04-18T06:14:20.729Z,14.08
2023-04-18T06:15:22.540Z,14.11
2023-04-18T06:16:24.434Z,14.13
2023-04-18T06:17:26.284Z,14.17
2023-04-18T06:18:28.148Z,14.18
2023-04-18T06:19:29.952Z,14.20
2023-04-18T06:20:31.773Z,14.21
2023-04-18T06:21:33.566Z,14.26
2023-04-18T06:22:35.427Z,14.29
2023-04-18T06:23:37.232Z,14.34
2023-04-18T06:24:39.019Z,14.35
2023-04-18T06:25:40.823Z,14.37
2023-04-18T06:26:42.631Z,14.39
2023-04-18T06:27:44.466Z,14.41
2023-04-18T06:28:46.288Z,14.43
2023-04-18T06:29:48.077Z,14.48
2023-04-18T06:30:49.878Z,14.49
2023-04-18T06:31:51.747Z,14.46
2023-04-18T06:32:53.706Z,14.50
2023-04-18T06:33:55.558Z,14.53
2023-04-18T06:34:57.349Z,14.53
2023-04-18T06:36:00.294Z,14.57
2023-04-18T06:37:02.088Z,14.58
2023-04-18T06:38:03.922Z,14.60
2023-04-18T06:39:05.759Z,14.61
2023-04-18T06:40:07.948Z,14.62
2023-04-18T06:41:09.759Z,14.65
2023-04-18T06:42:11.550Z,14.68
2023-04-18T06:43:13.406Z,14.70
2023-04-18T06:44:15.308Z,14.74
2023-04-18T06:45:17.308Z,14.78
2023-04-18T06:46:19.097Z,14.81
2023-04-18T06:47:22.692Z,14.83
2023-04-18T06:48:24.536Z,14.87
2023-04-18T06:49:26.715Z,14.90
2023-04-18T06:50:28.646Z,14.93
2023-04-18T06:51:30.438Z,14.98
2023-04-18T06:52:32.242Z,15.01
2023-04-18T06:53:34.086Z,15.07
2023-04-18T06:54:35.777Z,15.12
2023-04-18T06:55:37.569Z,15.15
2023-04-18T06:56:39.353Z,15.16
2023-04-18T06:57:41.162Z,15.13
2023-04-18T06:58:43.090Z,15.15
2023-04-18T06:59:44.925Z,15.19
2023-04-18T07:00:46.778Z,15.26
2023-04-18T07:01:48.609Z,15.31
2023-04-18T07:02:50.511Z,15.34
2023-04-18T07:03:52.461Z,15.38
2023-04-18T07:04:54.285Z,15.41
2023-04-18T07:05:56.113Z,15.49
2023-04-18T07:06:57.906Z,15.50
2023-04-18T07:07:59.681Z,15.56
2023-04-18T07:09:01.552Z,15.59
2023-04-18T07:10:03.332Z,15.63
2023-04-18T07:11:05.140Z,15.68
2023-04-18T07:12:06.929Z,15.68
2023-04-18T07:13:08.748Z,15.67
2023-04-18T07:14:10.620Z,15.69
2023-04-18T07:15:12.424Z,15.71
2023-04-18T07:16:14.247Z,15.75
2023-04-18T07:17:16.009Z,15.81
2023-04-18T07:18:30.248Z,15.82
2023-04-18T07:19:21.387Z,15.86
2023-04-18T07:20:23.190Z,15.89
2023-04-18T07:21:24.975Z,15.92
2023-04-18T07:22:26.889Z,15.93
2023-04-18T07:23:28.692Z,15.95
2023-04-18T07:24:30.529Z,15.99
2023-04-18T07:25:32.334Z,16.03
2023-04-18T07:26:34.125Z,16.05
2023-04-18T07:27:35.916Z,16.09
2023-04-18T07:28:37.721Z,16.13
2023-04-18T07:29:39.594Z,16.17
2023-04-18T07:30:41.512Z,16.21
2023-04-18T07:31:43.431Z,16.22
2023-04-18T07:32:45.258Z,16.27
2023-04-18T07:33:47.055Z,16.30
2023-04-18T07:34:48.947Z,16.32
2023-04-18T07:35:50.744Z,16.32
2023-04-18T07:36:52.541Z,16.34
2023-04-18T07:37:54.347Z,16.34
2023-04-18T07:38:56.144Z,16.33
2023-04-18T07:39:57.968Z,16.33
2023-04-18T07:40:59.785Z,16.34
2023-04-18T07:42:01.564Z,16.35
2023-04-18T07:43:03.362Z,16.34
2023-04-18T07:44:05.169Z,16.36
2023-04-18T07:45:06.888Z,16.37
2023-04-18T07:46:09.078Z,16.38
2023-04-18T07:47:10.932Z,16.39
2023-04-18T07:48:12.782Z,16.40
2023-04-18T07:49:14.771Z,16.40
2023-04-18T07:50:16.769Z,16.39
2023-04-18T07:51:18.560Z,16.37
2023-04-18T07:52:20.357Z,16.36
2023-04-18T07:53:22.166Z,16.35
2023-04-18T07:54:23.961Z,16.34
2023-04-18T07:55:25.785Z,16.33
2023-04-18T07:56:27.615Z,16.29
2023-04-18T07:57:29.412Z,16.30
2023-04-18T07:58:31.221Z,16.32
2023-04-18T07:59:33.042Z,16.29
2023-04-18T08:00:34.849Z,16.29
2023-04-18T08:01:36.687Z,16.32
2023-04-18T08:02:38.599Z,16.33
2023-04-18T08:03:40.628Z,16.33
2023-04-18T08:04:42.693Z,16.36
2023-04-18T08:05:44.639Z,16.38
2023-04-18T08:06:46.420Z,16.40
2023-04-18T08:07:48.232Z,16.41
2023-04-18T08:08:50.048Z,16.45
2023-04-18T08:09:51.863Z,16.47
2023-04-18T08:10:53.706Z,16.48
2023-04-18T08:11:55.493Z,16.50
2023-04-18T08:12:57.285Z,16.51
2023-04-18T08:13:59.079Z,16.54
2023-04-18T08:15:00.889Z,16.58
2023-04-18T08:16:02.755Z,16.56
2023-04-18T08:17:04.545Z,16.56
2023-04-18T08:18:06.373Z,16.58
2023-04-18T08:19:08.545Z,16.59
2023-04-18T08:20:11.179Z,16.61
2023-04-18T08:21:13.000Z,16.65
2023-04-18T08:22:14.799Z,16.66
2023-04-18T08:23:16.625Z,16.68
2023-04-18T08:24:18.440Z,16.69
2023-04-18T08:25:20.233Z,16.70
2023-04-18T08:26:24.336Z,16.71
2023-04-18T08:27:26.180Z,16.72
2023-04-18T08:28:27.879Z,16.75
2023-04-18T08:29:29.678Z,16.76
2023-04-18T08:30:32.478Z,16.79
2023-04-18T08:31:34.644Z,16.80
2023-04-18T08:32:36.480Z,16.81
2023-04-18T08:33:38.317Z,16.79
2023-04-18T08:34:40.111Z,16.78
2023-04-18T08:35:41.934Z,16.79
2023-04-18T08:36:43.778Z,16.82
2023-04-18T08:37:45.578Z,16.83
2023-04-18T08:38:47.363Z,16.83
2023-04-18T08:39:49.069Z,16.85
2023-04-18T08:40:50.857Z,16.86
2023-04-18T08:41:52.703Z,16.88
2023-04-18T08:42:54.512Z,16.89
2023-04-18T08:43:57.222Z,16.90
2023-04-18T08:44:59.016Z,16.90
2023-04-18T08:46:00.913Z,16.91
2023-04-18T08:47:02.764Z,16.90
2023-04-18T08:48:04.678Z,16.92
2023-04-18T08:49:06.594Z,16.91
2023-04-18T08:50:08.397Z,16.93
2023-04-18T08:51:10.246Z,16.94
2023-04-18T08:52:12.081Z,16.95
2023-04-18T08:53:13.874Z,16.95
2023-04-18T08:54:15.664Z,16.96
2023-04-18T08:55:17.359Z,16.98
2023-04-18T08:56:19.175Z,16.97
2023-04-18T08:57:21.017Z,16.96
2023-04-18T08:58:22.818Z,16.97
2023-04-18T08:59:24.619Z,16.96
2023-04-18T09:00:26.421Z,16.95
2023-04-18T09:01:28.379Z,16.96
2023-04-18T09:02:30.341Z,16.95
2023-04-18T09:03:32.371Z,16.97
2023-04-18T09:04:34.273Z,16.99
2023-04-18T09:05:36.074Z,16.99
2023-04-18T09:06:37.875Z,17.02
2023-04-18T09:07:39.707Z,17.05
2023-04-18T09:08:41.514Z,17.06
2023-04-18T09:09:43.323Z,17.09
2023-04-18T09:10:46.744Z,17.11
2023-04-18T09:11:48.625Z,17.14
2023-04-18T09:12:50.748Z,17.18
2023-04-18T09:13:52.547Z,17.19
2023-04-18T09:14:54.358Z,17.18
2023-04-18T09:15:56.174Z,17.18
2023-04-18T09:16:58.032Z,17.17
2023-04-18T09:18:00.055Z,17.17
2023-04-18T09:19:02.043Z,17.18
2023-04-18T09:20:03.890Z,17.21
2023-04-18T09:21:05.687Z,17.23
2023-04-18T09:22:07.496Z,17.25
2023-04-18T09:23:09.320Z,17.27
2023-04-18T09:24:11.296Z,17.27
2023-04-18T09:25:13.236Z,17.28
2023-04-18T09:26:15.642Z,17.29
2023-04-18T09:27:17.457Z,17.30
2023-04-18T09:28:19.298Z,17.31
2023-04-18T09:29:21.099Z,17.29
2023-04-18T09:30:23.021Z,17.27
2023-04-18T09:31:24.877Z,17.29
2023-04-18T09:32:26.757Z,17.30
2023-04-18T09:33:28.680Z,17.32
2023-04-18T09:34:30.432Z,17.34
2023-04-18T09:35:32.331Z,17.36
2023-04-18T09:36:34.165Z,17.36
2023-04-18T09:37:35.926Z,17.40
2023-04-18T09:38:37.749Z,17.41
2023-04-18T09:39:39.532Z,17.43
2023-04-18T09:40:41.339Z,17.45
2023-04-18T09:41:43.178Z,17.45
2023-04-18T09:42:44.930Z,17.47
2023-04-18T09:43:46.754Z,17.48
2023-04-18T09:44:48.541Z,17.47
2023-04-18T09:45:50.379Z,17.48
2023-04-18T09:46:52.165Z,17.46
2023-04-18T09:47:54.052Z,17.45
2023-04-18T09:48:55.894Z,17.46
2023-04-18T09:49:57.699Z,17.47
2023-04-18T09:50:59.527Z,17.48
2023-04-18T09:52:01.298Z,17.48
2023-04-18T09:53:03.121Z,17.48
2023-04-18T09:54:04.929Z,17.48
2023-04-18T09:55:06.755Z,17.48
2023-04-18T09:56:09.874Z,17.49
2023-04-18T09:57:11.689Z,17.49
2023-04-18T09:58:13.486Z,17.52
2023-04-18T09:59:15.508Z,17.56
2023-04-18T10:00:17.568Z,17.59
2023-04-18T10:01:21.123Z,17.62
2023-04-18T10:02:23.060Z,17.65
2023-04-18T10:03:25.100Z,17.65
2023-04-18T10:04:27.038Z,17.65
2023-04-18T10:05:28.928Z,17.66
2023-04-18T10:06:30.691Z,17.67
2023-04-18T10:07:32.373Z,17.66
2023-04-18T10:08:34.170Z,17.66
2023-04-18T10:09:35.995Z,17.65
2023-04-18T10:10:39.078Z,17.65
2023-04-18T10:11:41.133Z,17.66
2023-04-18T10:12:42.929Z,17.65
2023-04-18T10:13:44.746Z,17.63
2023-04-18T10:14:46.596Z,17.64
2023-04-18T10:15:50.418Z,17.64
2023-04-18T10:16:52.112Z,17.64
2023-04-18T10:18:03.530Z,17.67
2023-04-18T10:18:57.744Z,17.67
2023-04-18T10:19:59.566Z,17.69
2023-04-18T10:21:01.376Z,17.71
2023-04-18T10:22:03.169Z,17.71
2023-04-18T10:23:04.969Z,17.72
2023-04-18T10:24:06.771Z,17.72
2023-04-18T10:25:08.616Z,17.71
2023-04-18T10:26:10.450Z,17.70
2023-04-18T10:27:12.221Z,17.70
2023-04-18T10:28:14.023Z,17.69
2023-04-18T10:29:15.882Z,17.70
2023-04-18T10:30:17.707Z,17.71
2023-04-18T10:31:19.511Z,17.71
2023-04-18T10:32:21.363Z,17.74
2023-04-18T10:33:30.517Z,17.74
2023-04-18T10:34:26.778Z,17.76
2023-04-18T10:35:28.623Z,17.76
2023-04-18T10:36:30.518Z,17.76
2023-04-18T10:37:32.295Z,17.73
2023-04-18T10:38:34.093Z,17.79
2023-04-18T10:39:35.896Z,17.78
2023-04-18T10:40:37.740Z,17.80
2023-04-18T10:41:39.542Z,17.80
2023-04-18T10:42:41.386Z,17.80
2023-04-18T10:43:43.584Z,17.85
2023-04-18T10:44:45.429Z,17.88
2023-04-18T10:45:47.262Z,17.89
2023-04-18T10:46:49.083Z,17.89
2023-04-18T10:47:50.980Z,17.91
2023-04-18T10:48:52.798Z,17.92
2023-04-18T10:49:54.616Z,17.94
2023-04-18T10:50:56.436Z,17.97
2023-04-18T10:51:58.240Z,17.98
2023-04-18T10:53:00.066Z,18.01
2023-04-18T10:54:01.857Z,18.02
2023-04-18T10:55:03.697Z,18.00
2023-04-18T10:56:05.611Z,18.00
2023-04-18T10:57:07.419Z,17.99
2023-04-18T10:58:09.216Z,17.99
2023-04-18T10:59:11.005Z,18.03
2023-04-18T11:00:13.039Z,18.03
2023-04-18T11:01:14.899Z,18.03
2023-04-18T11:02:16.781Z,18.03
2023-04-18T11:03:18.626Z,18.05
2023-04-18T11:04:20.776Z,18.04
2023-04-18T11:05:22.684Z,18.08
2023-04-18T11:06:24.515Z,18.08
2023-04-18T11:07:28.408Z,18.05
2023-04-18T11:08:30.697Z,18.07
2023-04-18T11:09:32.550Z,18.08
2023-04-18T11:10:34.359Z,18.07
2023-04-18T11:11:36.202Z,18.07
2023-04-18T11:12:37.997Z,18.05
2023-04-18T11:13:39.797Z,18.05
2023-04-18T11:14:41.597Z,18.04
2023-04-18T11:15:43.412Z,18.04
2023-04-18T11:16:45.262Z,18.08
2023-04-18T11:17:47.159Z,18.11
2023-04-18T11:18:49.071Z,18.13
2023-04-18T11:19:50.884Z,18.15
2023-04-18T11:20:52.672Z,18.14
2023-04-18T11:21:54.515Z,18.15
2023-04-18T11:22:56.321Z,18.15
2023-04-18T11:23:58.117Z,18.17
2023-04-18T11:24:59.918Z,18.20
2023-04-18T11:26:01.708Z,18.20
2023-04-18T11:27:03.549Z,18.21
2023-04-18T11:28:05.433Z,18.21
2023-04-18T11:29:07.261Z,18.22
2023-04-18T11:30:09.513Z,18.26
2023-04-18T11:31:11.298Z,18.28
2023-04-18T11:32:13.204Z,18.31
2023-04-18T11:33:15.032Z,18.32
2023-04-18T11:34:16.804Z,18.32
2023-04-18T11:35:18.589Z,18.33
2023-04-18T11:36:20.497Z,18.33
2023-04-18T11:37:22.359Z,18.34
2023-04-18T11:38:24.351Z,18.34
2023-04-18T11:39:26.282Z,18.35
2023-04-18T11:40:28.059Z,18.36
2023-04-18T11:41:29.876Z,18.37
2023-04-18T11:42:31.702Z,18.37
2023-04-18T11:43:33.511Z,18.37
2023-04-18T11:44:36.216Z,18.37
2023-04-18T11:45:38.287Z,18.37
2023-04-18T11:46:40.144Z,18.37
2023-04-18T11:47:42.025Z,18.38
2023-04-18T11:48:43.800Z,18.41
2023-04-18T11:49:45.594Z,18.42
2023-04-18T11:50:47.405Z,18.45
2023-04-18T11:51:49.220Z,18.47
2023-04-18T11:52:51.039Z,18.50
2023-04-18T11:53:52.829Z,18.50
2023-04-18T11:54:54.625Z,18.48
2023-04-18T11:55:56.434Z,18.45
2023-04-18T11:56:58.348Z,18.45
2023-04-18T11:58:00.197Z,18.41
2023-04-18T11:59:01.950Z,18.41
2023-04-18T12:00:03.764Z,18.41
2023-04-18T12:01:05.551Z,18.41
2023-04-18T12:02:16.422Z,18.41
2023-04-18T12:03:13.344Z,18.39
2023-04-18T12:04:15.094Z,18.41
2023-04-18T12:05:17.338Z,18.39
2023-04-18T12:06:19.356Z,18.38
2023-04-18T12:07:21.306Z,18.38
2023-04-18T12:08:23.189Z,18.39
2023-04-18T12:09:24.990Z,18.38
2023-04-18T12:10:26.767Z,18.37
2023-04-18T12:11:28.562Z,18.38
2023-04-18T12:12:30.383Z,18.38
2023-04-18T12:13:32.214Z,18.40
2023-04-18T12:14:34.007Z,18.38
2023-04-18T12:15:35.855Z,18.39
2023-04-18T12:16:37.611Z,18.41
2023-04-18T12:17:39.499Z,18.41
2023-04-18T12:18:41.387Z,18.39
2023-04-18T12:19:43.191Z,18.39
2023-04-18T12:20:44.989Z,18.37
2023-04-18T12:21:46.854Z,18.37
2023-04-18T12:22:48.652Z,18.35
2023-04-18T12:23:50.490Z,18.34
2023-04-18T12:24:52.287Z,18.36
2023-04-18T12:25:54.109Z,18.35
2023-04-18T12:26:55.927Z,18.35
2023-04-18T12:27:57.737Z,18.35
2023-04-18T12:28:59.581Z,18.34
2023-04-18T12:30:01.418Z,18.36
2023-04-18T12:31:03.304Z,18.36
2023-04-18T12:32:05.163Z,18.35
2023-04-18T12:33:06.958Z,18.35
2023-04-18T12:34:08.785Z,18.34
2023-04-18T12:35:10.585Z,18.36
2023-04-18T12:36:12.688Z,18.34
2023-04-18T12:37:14.486Z,18.33
2023-04-18T12:38:16.385Z,18.34
2023-04-18T12:39:18.223Z,18.36
2023-04-18T12:40:20.048Z,18.37
2023-04-18T12:41:21.857Z,18.37
2023-04-18T12:42:23.645Z,18.39
2023-04-18T12:43:25.453Z,18.41
2023-04-18T12:44:27.295Z,18.44
2023-04-18T12:45:29.111Z,18.46
2023-04-18T12:46:30.945Z,18.47
2023-04-18T12:47:32.815Z,18.47
2023-04-18T12:48:34.652Z,18.47
2023-04-18T12:49:36.494Z,18.46
2023-04-18T12:50:38.286Z,18.46
2023-04-18T12:51:40.089Z,18.41
2023-04-18T12:52:41.816Z,18.47
2023-04-18T12:53:43.600Z,18.46
2023-04-18T12:54:45.460Z,18.47
2023-04-18T12:55:47.266Z,18.48
2023-04-18T12:56:49.055Z,18.48
2023-04-18T12:57:50.864Z,18.48
2023-04-18T12:58:52.672Z,18.48
2023-04-18T12:59:54.517Z,18.49
2023-04-18T13:00:56.319Z,18.48
2023-04-18T13:01:58.254Z,18.48
2023-04-18T13:03:00.266Z,18.47
2023-04-18T13:04:11.468Z,18.45
2023-04-18T13:05:05.888Z,18.45
2023-04-18T13:06:07.770Z,18.46
2023-04-18T13:07:09.570Z,18.47
2023-04-18T13:08:16.776Z,18.48
2023-04-18T13:09:15.172Z,18.50
2023-04-18T13:10:17.117Z,18.52
2023-04-18T13:11:18.944Z,18.53
2023-04-18T13:12:20.714Z,18.55
2023-04-18T13:13:22.637Z,18.55
2023-04-18T13:14:24.449Z,18.56
2023-04-18T13:15:26.344Z,18.58
2023-04-18T13:16:28.159Z,18.59
2023-04-18T13:17:30.085Z,18.60